Las Vegas, Nevada
Traffic Map
Current Weather Conditions
Las Vegas, Nevada
Overcast
Overcast
50°
Feels Like: 50°
Wind Chill: 50° Ceiling: 6000
Heat Index: 50° Visibility: 10mi
Dew Point: 44° Wind: 5mph
Humidity: 80% Direction: 120° (ESE)
Pressure: 30.04in Gusts: 0mph
Raw Report DataKLAS 180356Z 12004KT 10SM FEW049 OVC060 10/07 A3004 RMK AO2 SLP170 T01000067
Traffic Incident Summary
Active as of:
Severity:
Category:
InformationThere was an issue retrieving the traffic information for this location. Please try a different location or try again shortly.
Advertisements
Track Severe Weather on mobile